Time;durP1;ratioP1;P1;durP2;ratioP2;P2;SDS_P1;SDS_P2;PMS_P1;PMS_P2;Temp;Humidity;BMP_temperature;BMP_pressure;BME280_temperature;BME280_humidity;BME280_pressure;Samples;Min_cycle;Max_cycle;Signal;HPM_P1;HPM_P2
2021/01/13 00:00:33;;;;;;;9.27;7.27;;;;;;;;;;5027372;28;20545;-76
2021/01/13 00:03:38;;;;;;;10.33;7.50;;;;;;;;;;5021931;28;20591;-76
2021/01/13 00:06:42;;;;;;;11.07;7.63;;;;;;;;;;5035578;28;20583;-76
2021/01/13 00:09:46;;;;;;;9.87;7.57;;;;;;;;;;5012801;28;20595;-76
2021/01/13 00:12:50;;;;;;;10.03;7.63;;;;;;;;;;5035213;28;20646;-76
2021/01/13 00:15:55;;;;;;;8.43;7.23;;;;;;;;;;5016312;28;20641;-76
2021/01/13 00:18:59;;;;;;;10.77;7.40;;;;;;;;;;5016267;28;20603;-76
2021/01/13 00:22:04;;;;;;;10.20;7.77;;;;;;;;;;5016359;28;20632;-77
2021/01/13 00:25:09;;;;;;;10.07;7.17;;;;;;;;;;5033853;28;20580;-76
2021/01/13 00:28:13;;;;;;;9.63;7.43;;;;;;;;;;5036183;28;20547;-76
2021/01/13 00:31:18;;;;;;;11.53;7.17;;;;;;;;;;5032292;28;21029;-76
2021/01/13 00:34:26;;;;;;;10.20;7.53;;;;;;;;;;5016064;28;20628;-76
2021/01/13 00:37:33;;;;;;;8.23;6.67;;;;;;;;;;5026390;28;20596;-76
2021/01/13 00:40:37;;;;;;;8.83;7.00;;;;;;;;;;5034927;28;21114;-76
2021/01/13 00:43:42;;;;;;;8.93;6.97;;;;;;;;;;5029835;28;20624;-76
2021/01/13 00:46:46;;;;;;;13.83;7.20;;;;;;;;;;5015775;28;20600;-76
2021/01/13 00:49:50;;;;;;;10.07;7.13;;;;;;;;;;5014901;28;20615;-76
2021/01/13 00:52:54;;;;;;;9.37;7.07;;;;;;;;;;5015933;28;21083;-76
2021/01/13 00:55:58;;;;;;;9.40;6.67;;;;;;;;;;5003654;28;20530;-76
2021/01/13 00:59:03;;;;;;;9.23;7.30;;;;;;;;;;5025304;28;20599;-76
2021/01/13 01:02:07;;;;;;;11.43;6.70;;;;;;;;;;5034570;28;20623;-76
2021/01/13 01:05:12;;;;;;;8.97;6.93;;;;;;;;;;5034107;28;20583;-77
2021/01/13 01:08:17;;;;;;;10.20;6.90;;;;;;;;;;5035414;28;20544;-76
2021/01/13 01:11:31;;;;;;;10.77;7.20;;;;;;;;;;5022857;28;20622;-77
2021/01/13 01:14:36;;;;;;;11.60;7.33;;;;;;;;;;5027479;28;20647;-77
2021/01/13 01:17:40;;;;;;;14.10;7.47;;;;;;;;;;5035275;28;20547;-77
2021/01/13 01:20:44;;;;;;;13.33;6.70;;;;;;;;;;5034827;28;20544;-76
2021/01/13 01:23:48;;;;;;;9.33;6.93;;;;;;;;;;5034050;28;20596;-76
2021/01/13 01:26:52;;;;;;;9.60;6.70;;;;;;;;;;5034055;28;21097;-76
2021/01/13 01:29:56;;;;;;;11.03;7.60;;;;;;;;;;5033704;28;20619;-76
2021/01/13 01:33:00;;;;;;;9.00;6.53;;;;;;;;;;5034170;28;20548;-76
2021/01/13 01:36:05;;;;;;;12.13;6.80;;;;;;;;;;5034006;28;20591;-76
2021/01/13 01:39:09;;;;;;;12.73;6.53;;;;;;;;;;5033757;28;20548;-76
2021/01/13 01:42:16;;;;;;;11.90;7.00;;;;;;;;;;5025269;28;20624;-76
2021/01/13 01:45:28;;;;;;;10.30;6.87;;;;;;;;;;5031567;28;21137;-76
2021/01/13 01:48:42;;;;;;;9.77;6.40;;;;;;;;;;5034133;28;20600;-76
2021/01/13 01:52:16;;;;;;;9.10;6.40;;;;;;;;;;5034193;28;20975;-76
2021/01/13 01:55:24;;;;;;;11.33;6.63;;;;;;;;;;5033175;28;20635;-76
2021/01/13 01:58:30;;;;;;;9.80;5.57;;;;;;;;;;5034197;28;20548;-76
2021/01/13 02:01:37;;;;;;;8.20;5.20;;;;;;;;;;5033851;28;20646;-76
2021/01/13 02:04:43;;;;;;;9.10;6.33;;;;;;;;;;5033911;28;20615;-76
2021/01/13 02:07:47;;;;;;;10.93;6.87;;;;;;;;;;5033052;28;20591;-76
2021/01/13 02:10:52;;;;;;;8.90;6.40;;;;;;;;;;5014207;28;20619;-76
2021/01/13 02:13:56;;;;;;;8.23;6.30;;;;;;;;;;5020896;28;20620;-76
2021/01/13 02:17:06;;;;;;;8.33;6.20;;;;;;;;;;5033093;28;20536;-76
2021/01/13 02:20:12;;;;;;;11.60;6.57;;;;;;;;;;5032733;28;20970;-76
2021/01/13 02:23:35;;;;;;;11.17;6.53;;;;;;;;;;5020170;28;20595;-76
2021/01/13 02:27:07;;;;;;;8.50;6.23;;;;;;;;;;5013511;28;21079;-76
2021/01/13 02:30:17;;;;;;;10.23;5.97;;;;;;;;;;5013171;28;20584;-76
2021/01/13 02:33:29;;;;;;;8.10;6.23;;;;;;;;;;5008149;28;20619;-76
2021/01/13 02:36:33;;;;;;;13.20;6.93;;;;;;;;;;5025341;28;20577;-76
2021/01/13 02:39:41;;;;;;;11.63;6.50;;;;;;;;;;5013241;28;20545;-76
2021/01/13 02:43:23;;;;;;;10.60;5.90;;;;;;;;;;5013762;28;20624;-77
2021/01/13 02:46:50;;;;;;;11.33;6.27;;;;;;;;;;5006528;28;20584;-76
2021/01/13 02:50:22;;;;;;;12.00;6.17;;;;;;;;;;5031174;28;20575;-76
2021/01/13 02:53:47;;;;;;;12.10;6.53;;;;;;;;;;5019633;28;20571;-76
2021/01/13 02:56:54;;;;;;;10.23;6.10;;;;;;;;;;5005938;28;21162;-76
2021/01/13 02:59:58;;;;;;;11.00;6.73;;;;;;;;;;5013735;28;20545;-76
2021/01/13 03:03:03;;;;;;;13.83;6.97;;;;;;;;;;5020067;28;21204;-76
2021/01/13 03:06:09;;;;;;;10.43;6.27;;;;;;;;;;5008866;28;20615;-77
2021/01/13 03:09:14;;;;;;;9.77;6.87;;;;;;;;;;5033300;28;20591;-76
2021/01/13 03:12:23;;;;;;;9.43;6.70;;;;;;;;;;5033132;28;20623;-76
2021/01/13 03:15:28;;;;;;;9.87;6.37;;;;;;;;;;5000920;28;20648;-76
2021/01/13 03:18:46;;;;;;;12.63;7.20;;;;;;;;;;5013296;28;20545;-76
2021/01/13 03:22:04;;;;;;;12.83;6.67;;;;;;;;;;5017585;28;20628;-75
2021/01/13 03:25:11;;;;;;;13.80;7.30;;;;;;;;;;5016156;28;20599;-76
2021/01/13 03:28:18;;;;;;;11.97;7.13;;;;;;;;;;5024891;28;20587;-76
2021/01/13 03:31:28;;;;;;;11.53;7.30;;;;;;;;;;5035839;28;21244;-76
2021/01/13 03:34:39;;;;;;;9.03;6.17;;;;;;;;;;5036317;28;20544;-77
2021/01/13 03:37:56;;;;;;;15.20;8.00;;;;;;;;;;5046734;28;20669;-77
2021/01/13 03:41:06;;;;;;;11.57;6.97;;;;;;;;;;5024880;28;20619;-76
2021/01/13 03:44:15;;;;;;;16.60;8.17;;;;;;;;;;5047202;28;20583;-76
2021/01/13 03:47:44;;;;;;;15.33;6.60;;;;;;;;;;5036497;28;20583;-76
2021/01/13 03:50:51;;;;;;;11.10;6.77;;;;;;;;;;5035760;28;20618;-76
2021/01/13 03:54:00;;;;;;;10.97;7.10;;;;;;;;;;5036670;28;20891;-76
2021/01/13 03:57:07;;;;;;;11.73;7.23;;;;;;;;;;5035995;28;20576;-76
2021/01/13 04:00:12;;;;;;;15.97;8.67;;;;;;;;;;5035715;28;21082;-76
2021/01/13 04:03:20;;;;;;;12.27;6.97;;;;;;;;;;5036384;28;20595;-76
2021/01/13 04:06:24;;;;;;;11.07;7.17;;;;;;;;;;5024639;28;20536;-75
2021/01/13 04:09:32;;;;;;;9.47;6.93;;;;;;;;;;5016566;28;20553;-75
2021/01/13 04:12:51;;;;;;;18.93;7.63;;;;;;;;;;4993444;28;21153;-75
2021/01/13 04:16:00;;;;;;;11.57;7.40;;;;;;;;;;5060474;23;20693;-74
2021/01/13 04:19:05;;;;;;;12.37;7.27;;;;;;;;;;5055248;28;20555;-74
2021/01/13 04:22:14;;;;;;;13.40;7.60;;;;;;;;;;5058665;28;20653;-73
2021/01/13 04:25:19;;;;;;;13.10;8.10;;;;;;;;;;5056746;28;20582;-73
2021/01/13 04:28:23;;;;;;;12.40;7.83;;;;;;;;;;5055886;28;20586;-74
2021/01/13 04:31:28;;;;;;;15.70;8.27;;;;;;;;;;5054960;28;20618;-74
2021/01/13 04:34:32;;;;;;;11.80;8.03;;;;;;;;;;5055053;28;20543;-73
2021/01/13 04:37:36;;;;;;;13.13;8.27;;;;;;;;;;5072407;28;20570;-74
2021/01/13 04:40:49;;;;;;;11.67;7.50;;;;;;;;;;5073073;28;20546;-74
2021/01/13 04:44:03;;;;;;;18.00;8.83;;;;;;;;;;5055610;28;20543;-74
2021/01/13 04:47:09;;;;;;;12.60;7.77;;;;;;;;;;5048274;28;20613;-75
2021/01/13 04:50:17;;;;;;;15.70;8.07;;;;;;;;;;5075473;28;20542;-74
2021/01/13 04:53:22;;;;;;;13.33;7.87;;;;;;;;;;5075329;28;20597;-74
2021/01/13 04:56:27;;;;;;;16.73;8.27;;;;;;;;;;5074763;28;20949;-74
2021/01/13 04:59:57;;;;;;;15.20;7.67;;;;;;;;;;5048753;28;21160;-74
2021/01/13 05:03:30;;;;;;;12.27;8.37;;;;;;;;;;5055376;28;20938;-75
2021/01/13 05:06:48;;;;;;;12.60;7.40;;;;;;;;;;5055134;28;20539;-75
2021/01/13 05:10:00;;;;;;;13.60;7.60;;;;;;;;;;5075069;28;20593;-74
2021/01/13 05:13:05;;;;;;;16.37;7.93;;;;;;;;;;5074522;28;20538;-74
2021/01/13 05:16:12;;;;;;;10.83;7.37;;;;;;;;;;5074898;28;20996;-75
2021/01/13 05:19:55;;;;;;;12.80;7.60;;;;;;;;;;5061340;28;20582;-74
2021/01/13 05:23:00;;;;;;;12.17;7.77;;;;;;;;;;5054773;28;20610;-74
2021/01/13 05:26:08;;;;;;;15.33;8.20;;;;;;;;;;5054245;28;20539;-74
2021/01/13 05:29:38;;;;;;;14.70;7.10;;;;;;;;;;5054663;28;20543;-73
2021/01/13 05:32:43;;;;;;;11.00;7.03;;;;;;;;;;5054565;28;20625;-74
2021/01/13 05:35:55;;;;;;;14.47;7.93;;;;;;;;;;5054752;28;21137;-74
2021/01/13 05:39:10;;;;;;;15.23;7.10;;;;;;;;;;5065389;28;20930;-74
2021/01/13 05:42:15;;;;;;;11.93;6.97;;;;;;;;;;5054262;28;21002;-74
2021/01/13 05:45:20;;;;;;;14.97;6.57;;;;;;;;;;5071095;28;20586;-74
2021/01/13 05:48:25;;;;;;;11.43;6.87;;;;;;;;;;5073372;28;20609;-74
2021/01/13 05:51:30;;;;;;;13.90;7.33;;;;;;;;;;5073470;28;20645;-74
2021/01/13 05:54:38;;;;;;;16.40;7.10;;;;;;;;;;5059340;28;20594;-74
2021/01/13 05:57:57;;;;;;;19.93;7.33;;;;;;;;;;5072147;28;20914;-73
2021/01/13 06:01:01;;;;;;;11.63;6.93;;;;;;;;;;5073239;28;20626;-74
2021/01/13 06:04:08;;;;;;;12.63;7.47;;;;;;;;;;5060535;28;20953;-74
2021/01/13 06:07:21;;;;;;;12.57;7.10;;;;;;;;;;5073058;28;20909;-74
2021/01/13 06:10:29;;;;;;;10.20;7.07;;;;;;;;;;5072899;28;20554;-74
2021/01/13 06:13:50;;;;;;;12.30;7.07;;;;;;;;;;5053255;28;20591;-75
2021/01/13 06:16:55;;;;;;;11.17;6.33;;;;;;;;;;5053620;28;20646;-75
2021/01/13 06:19:59;;;;;;;11.60;6.50;;;;;;;;;;5071002;28;20593;-75
2021/01/13 06:23:08;;;;;;;10.23;6.23;;;;;;;;;;5059880;28;20534;-74
2021/01/13 06:26:12;;;;;;;10.77;5.07;;;;;;;;;;5053845;28;20539;-75
2021/01/13 06:29:23;;;;;;;10.93;5.30;;;;;;;;;;5053705;28;20597;-75
2021/01/13 06:32:33;;;;;;;11.13;5.00;;;;;;;;;;5052672;28;20626;-75
2021/01/13 06:35:42;;;;;;;8.17;4.67;;;;;;;;;;5053327;28;20590;-75
2021/01/13 06:38:55;;;;;;;10.70;4.83;;;;;;;;;;5059191;28;20598;-75
2021/01/13 06:41:59;;;;;;;10.23;4.90;;;;;;;;;;5073349;28;20632;-74
2021/01/13 06:45:05;;;;;;;13.77;4.80;;;;;;;;;;5055483;28;20582;-74
2021/01/13 06:48:10;;;;;;;11.03;4.70;;;;;;;;;;5068845;28;20578;-74
2021/01/13 06:51:16;;;;;;;14.63;5.83;;;;;;;;;;5054277;28;20638;-75
2021/01/13 06:54:21;;;;;;;7.40;4.97;;;;;;;;;;5052456;28;20594;-74
2021/01/13 06:57:30;;;;;;;6.53;4.83;;;;;;;;;;5054338;28;21135;-74
2021/01/13 07:00:35;;;;;;;10.03;5.07;;;;;;;;;;5059871;28;20590;-74
2021/01/13 07:03:39;;;;;;;11.33;4.20;;;;;;;;;;5060632;28;20597;-74
2021/01/13 07:07:00;;;;;;;11.93;5.17;;;;;;;;;;5073563;28;20539;-74
2021/01/13 07:10:10;;;;;;;6.93;4.23;;;;;;;;;;5070216;28;20601;-74
2021/01/13 07:13:17;;;;;;;6.90;3.70;;;;;;;;;;5053295;28;20543;-74
2021/01/13 07:16:28;;;;;;;6.90;3.90;;;;;;;;;;5054630;28;20666;-74
2021/01/13 07:19:34;;;;;;;7.63;3.70;;;;;;;;;;5054643;28;21128;-74
2021/01/13 07:22:38;;;;;;;8.43;4.10;;;;;;;;;;5072803;28;20617;-75
2021/01/13 07:25:48;;;;;;;7.80;4.27;;;;;;;;;;5071581;28;20585;-75
2021/01/13 07:28:54;;;;;;;7.77;4.93;;;;;;;;;;5057508;28;20594;-74
2021/01/13 07:31:58;;;;;;;7.93;4.53;;;;;;;;;;5052758;28;20614;-75
2021/01/13 07:35:07;;;;;;;6.33;3.87;;;;;;;;;;5057965;28;20585;-74
2021/01/13 07:38:19;;;;;;;10.17;4.43;;;;;;;;;;5072461;28;20579;-73
2021/01/13 07:41:48;;;;;;;10.93;7.13;;;;;;;;;;5053847;28;20646;-73
2021/01/13 07:45:00;;;;;;;11.10;5.20;;;;;;;;;;5070296;28;20569;-74
2021/01/13 07:48:16;;;;;;;11.63;5.77;;;;;;;;;;5052809;28;20583;-73
2021/01/13 07:51:33;;;;;;;9.70;4.80;;;;;;;;;;5067218;28;20645;-73
2021/01/13 07:54:37;;;;;;;10.13;5.07;;;;;;;;;;5051682;28;20591;-73
2021/01/13 07:57:48;;;;;;;12.37;6.47;;;;;;;;;;5040462;28;20595;-73
2021/01/13 08:01:16;;;;;;;8.97;5.53;;;;;;;;;;5064288;28;20649;-73
2021/01/13 08:05:13;;;;;;;8.73;5.77;;;;;;;;;;5072535;28;20542;-73
2021/01/13 08:08:23;;;;;;;10.87;4.30;;;;;;;;;;5070203;28;20608;-73
2021/01/13 08:12:01;;;;;;;7.17;4.80;;;;;;;;;;5075021;28;20645;-73
2021/01/13 08:15:33;;;;;;;10.87;5.60;;;;;;;;;;5059440;28;21152;-73
2021/01/13 08:19:09;;;;;;;11.43;6.90;;;;;;;;;;5056330;28;20527;-73
2021/01/13 08:22:15;;;;;;;9.70;5.00;;;;;;;;;;5055107;28;20626;-72
2021/01/13 08:25:27;;;;;;;6.97;4.57;;;;;;;;;;5073516;28;20929;-73
2021/01/13 08:28:40;;;;;;;11.43;5.17;;;;;;;;;;5075784;28;20582;-72
2021/01/13 08:31:50;;;;;;;10.03;6.17;;;;;;;;;;5075851;28;20625;-73
2021/01/13 08:35:04;;;;;;;12.30;7.00;;;;;;;;;;5060656;28;20614;-73
2021/01/13 08:38:10;;;;;;;9.60;5.40;;;;;;;;;;5059125;28;20621;-73
2021/01/13 08:41:24;;;;;;;10.83;4.97;;;;;;;;;;5075620;28;20617;-73
2021/01/13 08:44:38;;;;;;;11.87;5.33;;;;;;;;;;5066189;28;20591;-73
2021/01/13 08:48:05;;;;;;;10.77;6.80;;;;;;;;;;5056387;28;20582;-73
2021/01/13 08:51:09;;;;;;;14.93;8.37;;;;;;;;;;5074699;28;20633;-73
2021/01/13 08:54:21;;;;;;;12.23;10.87;;;;;;;;;;5065631;28;20578;-73
2021/01/13 08:57:26;;;;;;;10.37;6.20;;;;;;;;;;5054693;28;20600;-72
2021/01/13 09:00:31;;;;;;;9.10;5.47;;;;;;;;;;5055137;28;20606;-73
2021/01/13 09:03:40;;;;;;;32.40;15.47;;;;;;;;;;5056603;28;20605;-73
2021/01/13 09:07:00;;;;;;;14.50;9.57;;;;;;;;;;5063156;28;20583;-73
2021/01/13 09:10:11;;;;;;;23.77;10.73;;;;;;;;;;5055195;28;20551;-73
2021/01/13 09:13:33;;;;;;;12.70;7.97;;;;;;;;;;5054495;28;21098;-73
2021/01/13 09:16:41;;;;;;;12.73;6.57;;;;;;;;;;5054732;28;20650;-73
2021/01/13 09:19:45;;;;;;;11.43;6.20;;;;;;;;;;5054167;28;20539;-73
2021/01/13 09:23:20;;;;;;;48.57;24.40;;;;;;;;;;5055080;28;21171;-73
2021/01/13 09:26:35;;;;;;;11.77;5.23;;;;;;;;;;5042579;28;20558;-73
2021/01/13 09:29:50;;;;;;;15.03;6.33;;;;;;;;;;5054184;28;20547;-74
2021/01/13 09:32:57;;;;;;;11.20;5.70;;;;;;;;;;5054905;28;20535;-75
2021/01/13 09:36:01;;;;;;;8.20;5.37;;;;;;;;;;5046167;28;20622;-73
2021/01/13 09:39:14;;;;;;;13.83;6.43;;;;;;;;;;5061810;28;20676;-73
2021/01/13 09:42:22;;;;;;;56.10;24.57;;;;;;;;;;5058840;28;20969;-73
2021/01/13 09:45:38;;;;;;;38.53;17.80;;;;;;;;;;5074164;28;20582;-73
2021/01/13 09:48:59;;;;;;;25.30;14.40;;;;;;;;;;5073460;28;20582;-72
2021/01/13 09:52:11;;;;;;;17.30;11.53;;;;;;;;;;5074410;28;20645;-73
2021/01/13 09:55:16;;;;;;;13.50;6.53;;;;;;;;;;5073589;28;20555;-73
2021/01/13 09:58:35;;;;;;;14.53;6.73;;;;;;;;;;5073131;28;20625;-72
2021/01/13 10:01:39;;;;;;;17.33;11.60;;;;;;;;;;5073932;28;20633;-72
2021/01/13 10:04:50;;;;;;;20.17;11.17;;;;;;;;;;5074510;28;20538;-72
2021/01/13 10:07:56;;;;;;;17.40;8.87;;;;;;;;;;5073895;28;20586;-72
2021/01/13 10:11:01;;;;;;;16.60;9.37;;;;;;;;;;5073742;28;20621;-74
2021/01/13 10:14:08;;;;;;;13.73;8.33;;;;;;;;;;5073902;28;20546;-74
2021/01/13 10:17:12;;;;;;;20.33;8.43;;;;;;;;;;5073589;28;20662;-73
2021/01/13 10:20:19;;;;;;;10.90;6.73;;;;;;;;;;5084888;28;20538;-74
2021/01/13 10:23:26;;;;;;;15.80;8.37;;;;;;;;;;5073654;28;21076;-73
2021/01/13 10:26:35;;;;;;;14.83;8.10;;;;;;;;;;5073568;28;20597;-73
2021/01/13 10:29:45;;;;;;;17.67;7.17;;;;;;;;;;5072669;28;21092;-73
2021/01/13 10:32:51;;;;;;;13.67;7.73;;;;;;;;;;5072836;28;21183;-74
2021/01/13 10:35:56;;;;;;;15.63;7.87;;;;;;;;;;5073743;28;20534;-74
2021/01/13 10:39:18;;;;;;;12.67;7.17;;;;;;;;;;5073388;28;20593;-74
2021/01/13 10:42:23;;;;;;;9.27;5.43;;;;;;;;;;5061270;28;20667;-75
2021/01/13 10:45:28;;;;;;;10.07;4.97;;;;;;;;;;5073358;28;20558;-74
2021/01/13 10:48:37;;;;;;;114.13;55.07;;;;;;;;;;5073151;28;20594;-75
2021/01/13 10:51:46;;;;;;;13.83;7.97;;;;;;;;;;5073614;28;20636;-74
2021/01/13 10:54:55;;;;;;;7.83;4.60;;;;;;;;;;5073422;28;20542;-75
2021/01/13 10:58:02;;;;;;;14.17;7.00;;;;;;;;;;5059558;28;20646;-75
2021/01/13 11:01:07;;;;;;;7.90;3.80;;;;;;;;;;5072992;28;20641;-75
2021/01/13 11:04:21;;;;;;;10.97;5.90;;;;;;;;;;5063999;28;20919;-76
2021/01/13 11:07:36;;;;;;;7.47;4.50;;;;;;;;;;5053105;28;20547;-75
2021/01/13 11:10:40;;;;;;;8.40;3.93;;;;;;;;;;5053368;28;20591;-76
2021/01/13 11:13:45;;;;;;;8.33;4.03;;;;;;;;;;5052636;28;20543;-76
2021/01/13 11:17:15;;;;;;;6.87;4.03;;;;;;;;;;5056553;28;20625;-76
2021/01/13 11:20:22;;;;;;;5.60;3.17;;;;;;;;;;5070120;28;20535;-75
2021/01/13 11:23:26;;;;;;;6.67;3.60;;;;;;;;;;5065003;28;20582;-75
2021/01/13 11:26:41;;;;;;;10.60;4.47;;;;;;;;;;5062359;28;21140;-74
2021/01/13 11:29:52;;;;;;;10.73;4.43;;;;;;;;;;5052503;28;20594;-74
2021/01/13 11:32:58;;;;;;;11.83;5.23;;;;;;;;;;5051896;28;20594;-74
2021/01/13 11:36:03;;;;;;;7.97;3.93;;;;;;;;;;5058451;28;20617;-75
2021/01/13 11:39:17;;;;;;;9.43;4.10;;;;;;;;;;5072065;28;20590;-75
2021/01/13 11:42:58;;;;;;;8.40;4.13;;;;;;;;;;5076142;28;20621;-74
2021/01/13 11:46:09;;;;;;;6.40;3.37;;;;;;;;;;5074728;28;20594;-74
2021/01/13 11:49:30;;;;;;;8.53;3.97;;;;;;;;;;5069134;28;20590;-73
2021/01/13 11:52:39;;;;;;;9.77;4.57;;;;;;;;;;5044597;28;20614;-74
2021/01/13 11:56:08;;;;;;;13.63;6.43;;;;;;;;;;5057277;28;20618;-74
2021/01/13 11:59:28;;;;;;;10.37;3.27;;;;;;;;;;5014410;28;20668;-75
2021/01/13 12:02:33;;;;;;;7.47;4.00;;;;;;;;;;5000112;28;20628;-75
2021/01/13 12:05:37;;;;;;;8.00;3.83;;;;;;;;;;4996888;28;20593;-76
2021/01/13 12:08:45;;;;;;;5.23;3.77;;;;;;;;;;4992620;28;20597;-72
2021/01/13 12:11:49;;;;;;;8.20;3.03;;;;;;;;;;4977451;28;20973;-72
2021/01/13 12:15:02;;;;;;;7.87;2.83;;;;;;;;;;4996125;28;20589;-72
2021/01/13 12:18:11;;;;;;;10.47;2.20;;;;;;;;;;4987895;28;20630;-72
2021/01/13 12:21:15;;;;;;;5.10;2.60;;;;;;;;;;4977642;28;20618;-72
2021/01/13 12:24:23;;;;;;;5.00;2.33;;;;;;;;;;4983863;28;20598;-73
2021/01/13 12:27:27;;;;;;;7.20;2.20;;;;;;;;;;4994490;28;20606;-72
2021/01/13 12:30:32;;;;;;;5.63;2.40;;;;;;;;;;4995846;28;20593;-74
2021/01/13 12:33:38;;;;;;;6.37;2.53;;;;;;;;;;4995336;28;20605;-74
2021/01/13 12:36:45;;;;;;;7.30;2.50;;;;;;;;;;4995906;28;20865;-73
2021/01/13 12:39:56;;;;;;;5.30;2.67;;;;;;;;;;4965140;28;20970;-73
2021/01/13 12:43:17;;;;;;;4.03;2.40;;;;;;;;;;4987288;28;20587;-73
2021/01/13 12:47:02;;;;;;;5.13;2.37;;;;;;;;;;5000007;28;20573;-73
2021/01/13 12:50:07;;;;;;;4.00;2.00;;;;;;;;;;5016021;28;20869;-72
2021/01/13 12:53:11;;;;;;;4.03;2.10;;;;;;;;;;5016846;28;20611;-72
2021/01/13 12:56:27;;;;;;;6.10;2.23;;;;;;;;;;4995853;28;20624;-72
2021/01/13 12:59:31;;;;;;;5.17;2.00;;;;;;;;;;4976599;28;20598;-72
2021/01/13 13:02:35;;;;;;;4.70;1.63;;;;;;;;;;4976473;28;20621;-72
2021/01/13 13:05:39;;;;;;;8.10;2.80;;;;;;;;;;4992852;28;20939;-72
2021/01/13 13:08:43;;;;;;;3.80;2.33;;;;;;;;;;4995788;28;21112;-72
2021/01/13 13:11:50;;;;;;;6.23;2.00;;;;;;;;;;4995251;28;20621;-72
2021/01/13 13:14:55;;;;;;;10.43;2.87;;;;;;;;;;4996010;28;20545;-72
2021/01/13 13:17:59;;;;;;;6.00;2.73;;;;;;;;;;4995514;28;20660;-72
2021/01/13 13:21:11;;;;;;;9.17;2.50;;;;;;;;;;4994866;28;20961;-73
2021/01/13 13:24:15;;;;;;;5.07;1.80;;;;;;;;;;4995832;28;20545;-72
2021/01/13 13:27:19;;;;;;;4.47;1.73;;;;;;;;;;4995655;28;20538;-72
2021/01/13 13:30:23;;;;;;;7.43;1.57;;;;;;;;;;4995462;28;20593;-72
2021/01/13 13:33:28;;;;;;;6.97;1.80;;;;;;;;;;4995565;28;20604;-72
2021/01/13 13:36:32;;;;;;;4.90;1.67;;;;;;;;;;4995417;28;20600;-73
2021/01/13 13:39:37;;;;;;;4.23;1.53;;;;;;;;;;4994345;28;20610;-72
2021/01/13 13:42:41;;;;;;;5.13;1.83;;;;;;;;;;4994427;28;20624;-72
2021/01/13 13:45:45;;;;;;;5.63;1.60;;;;;;;;;;4983237;28;20932;-72
2021/01/13 13:48:49;;;;;;;2.60;1.63;;;;;;;;;;4994637;28;21079;-72
2021/01/13 13:51:54;;;;;;;9.20;1.97;;;;;;;;;;4995035;28;20620;-72
2021/01/13 13:54:59;;;;;;;3.63;1.83;;;;;;;;;;4995027;28;20902;-72
2021/01/13 13:58:04;;;;;;;5.77;2.10;;;;;;;;;;4994825;28;20609;-72
2021/01/13 14:01:08;;;;;;;4.97;1.83;;;;;;;;;;4995013;28;20621;-72
2021/01/13 14:04:13;;;;;;;6.17;2.53;;;;;;;;;;4993662;28;20561;-72
2021/01/13 14:07:17;;;;;;;4.87;2.10;;;;;;;;;;4995012;28;21154;-72
2021/01/13 14:09:54;;;;;;;4.23;1.83;;;;;;;;;;5091436;27;20753;-72
2021/01/13 14:12:58;;;;;;;4.90;1.90;;;;;;;;;;5070603;28;20608;-72
2021/01/13 14:16:02;;;;;;;4.80;2.23;;;;;;;;;;5070551;28;20550;-72
2021/01/13 14:19:08;;;;;;;3.57;2.27;;;;;;;;;;5070617;28;20543;-72
2021/01/13 14:22:12;;;;;;;6.27;2.17;;;;;;;;;;5070171;28;20613;-72
2021/01/13 14:25:16;;;;;;;5.47;2.20;;;;;;;;;;5070287;28;20562;-73
2021/01/13 14:28:20;;;;;;;4.23;2.10;;;;;;;;;;5070598;28;20594;-72
2021/01/13 14:31:33;;;;;;;4.07;2.13;;;;;;;;;;5070144;28;20625;-72
2021/01/13 14:34:37;;;;;;;7.83;2.40;;;;;;;;;;5070282;28;20594;-73
2021/01/13 14:37:41;;;;;;;3.47;2.23;;;;;;;;;;5069822;28;20956;-73
2021/01/13 14:40:47;;;;;;;3.90;2.03;;;;;;;;;;5070715;28;20577;-76
2021/01/13 14:43:51;;;;;;;4.20;2.60;;;;;;;;;;5051338;28;20598;-76
2021/01/13 14:46:56;;;;;;;5.17;2.60;;;;;;;;;;5051836;28;20559;-76
2021/01/13 14:50:00;;;;;;;7.83;2.50;;;;;;;;;;5060037;28;20641;-76
2021/01/13 14:53:04;;;;;;;9.53;2.70;;;;;;;;;;5071144;28;20617;-76
2021/01/13 14:56:08;;;;;;;4.00;2.20;;;;;;;;;;5072136;28;20558;-75
2021/01/13 14:59:12;;;;;;;7.43;2.40;;;;;;;;;;5071599;28;21136;-76
2021/01/13 15:02:16;;;;;;;5.13;2.70;;;;;;;;;;5071730;28;20645;-76
2021/01/13 15:05:20;;;;;;;6.27;2.37;;;;;;;;;;5060246;28;20621;-76
2021/01/13 15:08:25;;;;;;;12.07;6.43;;;;;;;;;;5059686;28;20641;-76
2021/01/13 15:11:31;;;;;;;36.57;10.13;;;;;;;;;;5071386;28;20649;-76
2021/01/13 15:14:36;;;;;;;19.40;7.03;;;;;;;;;;5071100;28;20530;-76
2021/01/13 15:17:40;;;;;;;4.70;2.60;;;;;;;;;;5052047;28;20569;-76
2021/01/13 15:20:45;;;;;;;5.03;2.93;;;;;;;;;;5042649;28;20543;-76
2021/01/13 15:23:49;;;;;;;5.17;2.60;;;;;;;;;;5038442;28;20548;-76
2021/01/13 15:26:54;;;;;;;4.97;2.80;;;;;;;;;;5045931;28;21152;-76
2021/01/13 15:29:58;;;;;;;6.90;5.03;;;;;;;;;;5045532;28;20574;-76
2021/01/13 15:33:03;;;;;;;4.60;2.43;;;;;;;;;;5058539;28;20547;-76
2021/01/13 15:36:07;;;;;;;4.67;2.47;;;;;;;;;;5046655;28;20607;-76
2021/01/13 15:39:11;;;;;;;8.17;2.37;;;;;;;;;;5058052;28;20579;-76
2021/01/13 15:42:18;;;;;;;5.30;2.30;;;;;;;;;;5056995;28;21203;-76
2021/01/13 15:45:22;;;;;;;4.93;2.33;;;;;;;;;;5037411;28;21148;-75
2021/01/13 15:48:26;;;;;;;4.07;2.40;;;;;;;;;;5036981;28;20603;-75
2021/01/13 15:51:30;;;;;;;3.13;2.27;;;;;;;;;;5053047;28;20650;-75
2021/01/13 15:54:34;;;;;;;4.07;2.10;;;;;;;;;;5059767;28;20574;-76
2021/01/13 15:57:50;;;;;;;6.63;2.23;;;;;;;;;;5064850;28;20716;-76
2021/01/13 16:00:55;;;;;;;100.27;50.27;;;;;;;;;;5056998;28;20638;-75
2021/01/13 16:04:00;;;;;;;140.93;55.63;;;;;;;;;;5058146;28;20606;-76
2021/01/13 16:07:06;;;;;;;8.00;6.33;;;;;;;;;;5057514;28;20947;-76
2021/01/13 16:10:12;;;;;;;7.47;4.83;;;;;;;;;;5056250;28;20626;-75
2021/01/13 16:13:21;;;;;;;10.03;5.43;;;;;;;;;;5038082;28;20575;-76
2021/01/13 16:16:26;;;;;;;9.30;6.13;;;;;;;;;;5042380;28;20587;-76
2021/01/13 16:19:31;;;;;;;8.07;5.27;;;;;;;;;;5040524;28;20579;-76
2021/01/13 16:22:38;;;;;;;5.27;3.20;;;;;;;;;;5044352;28;20962;-77
2021/01/13 16:25:42;;;;;;;4.20;3.00;;;;;;;;;;5044163;28;20599;-76
2021/01/13 16:28:47;;;;;;;7.97;3.83;;;;;;;;;;5035570;28;20630;-76
2021/01/13 16:31:52;;;;;;;17.87;10.70;;;;;;;;;;5043794;28;20650;-77
2021/01/13 16:34:59;;;;;;;9.93;6.23;;;;;;;;;;5039084;28;20587;-78
2021/01/13 16:38:03;;;;;;;7.77;5.70;;;;;;;;;;5043006;28;20603;-77
2021/01/13 16:41:09;;;;;;;12.93;9.43;;;;;;;;;;5055972;28;20630;-76
2021/01/13 16:44:22;;;;;;;10.47;6.57;;;;;;;;;;5055454;28;20622;-76
2021/01/13 16:47:26;;;;;;;6.70;3.30;;;;;;;;;;5062422;28;20566;-76
2021/01/13 16:50:30;;;;;;;5.73;4.07;;;;;;;;;;5077572;28;20593;-76
2021/01/13 16:53:36;;;;;;;4.90;3.87;;;;;;;;;;5046393;28;20658;-76
2021/01/13 16:56:45;;;;;;;4.93;2.60;;;;;;;;;;5044296;28;20586;-76
2021/01/13 17:00:07;;;;;;;4.70;3.30;;;;;;;;;;5056021;28;20543;-76
2021/01/13 17:03:12;;;;;;;9.77;6.50;;;;;;;;;;5043469;28;20555;-76
2021/01/13 17:06:16;;;;;;;22.37;16.37;;;;;;;;;;5054571;28;20535;-76
2021/01/13 17:09:20;;;;;;;32.13;19.37;;;;;;;;;;5033119;28;20643;-76
2021/01/13 17:12:29;;;;;;;52.53;30.53;;;;;;;;;;5021031;28;20650;-77
2021/01/13 17:15:34;;;;;;;40.07;29.00;;;;;;;;;;5047560;28;21104;-77
2021/01/13 17:18:41;;;;;;;29.10;16.33;;;;;;;;;;5059975;28;20587;-77
2021/01/13 17:21:46;;;;;;;19.27;11.53;;;;;;;;;;5059523;28;20638;-77
2021/01/13 17:24:50;;;;;;;8.17;5.23;;;;;;;;;;5060194;28;20626;-77
2021/01/13 17:27:55;;;;;;;9.70;6.33;;;;;;;;;;5059832;28;21148;-77
2021/01/13 17:30:59;;;;;;;9.47;5.50;;;;;;;;;;5059566;28;20638;-77
2021/01/13 17:34:04;;;;;;;9.57;5.20;;;;;;;;;;5059463;28;20590;-77
2021/01/13 17:37:10;;;;;;;7.17;4.70;;;;;;;;;;5058752;28;20559;-76
2021/01/13 17:40:18;;;;;;;36.80;24.83;;;;;;;;;;5059350;28;20555;-77
2021/01/13 17:43:22;;;;;;;36.27;22.93;;;;;;;;;;5058580;28;20555;-77
2021/01/13 17:46:26;;;;;;;21.77;14.17;;;;;;;;;;5057910;28;20610;-77
2021/01/13 17:49:31;;;;;;;11.93;7.13;;;;;;;;;;5040300;28;20627;-76
2021/01/13 17:52:46;;;;;;;16.00;10.67;;;;;;;;;;5055227;28;20646;-75
2021/01/13 17:55:51;;;;;;;19.63;12.03;;;;;;;;;;5055444;28;20595;-75
2021/01/13 17:58:55;;;;;;;10.47;6.27;;;;;;;;;;5055718;28;21080;-75
2021/01/13 18:02:00;;;;;;;13.20;8.40;;;;;;;;;;5055738;28;20642;-75
2021/01/13 18:05:07;;;;;;;7.77;4.80;;;;;;;;;;5056158;28;20547;-75
2021/01/13 18:08:11;;;;;;;7.70;5.87;;;;;;;;;;5036525;28;20614;-76
2021/01/13 18:11:17;;;;;;;16.83;10.13;;;;;;;;;;5030057;28;20638;-76
2021/01/13 18:14:21;;;;;;;9.57;6.00;;;;;;;;;;5037294;28;20551;-76
2021/01/13 18:17:25;;;;;;;10.10;7.03;;;;;;;;;;5052453;28;20594;-75
2021/01/13 18:20:31;;;;;;;12.27;7.13;;;;;;;;;;5056893;28;20544;-75
2021/01/13 18:23:36;;;;;;;9.30;7.20;;;;;;;;;;5044974;28;20551;-75
2021/01/13 18:26:40;;;;;;;7.93;5.60;;;;;;;;;;5057004;28;20721;-76
2021/01/13 18:29:44;;;;;;;10.13;7.17;;;;;;;;;;5056460;28;20638;-75
2021/01/13 18:32:53;;;;;;;6.60;4.73;;;;;;;;;;5056871;28;20654;-76
2021/01/13 18:35:57;;;;;;;5.30;4.00;;;;;;;;;;5054786;28;20598;-75
2021/01/13 18:39:04;;;;;;;7.83;4.07;;;;;;;;;;5032578;28;20590;-76
2021/01/13 18:42:08;;;;;;;5.27;3.60;;;;;;;;;;5043204;28;20641;-74